createdAt,value
2022-11-03T00:00:12.743Z,81.03
2022-11-03T00:02:39.575Z,80.91
2022-11-03T00:05:26.078Z,79.97
2022-11-03T00:07:52.586Z,80.31
2022-11-03T00:10:18.990Z,80.48
2022-11-03T00:12:45.440Z,79.93
2022-11-03T00:15:11.847Z,80.49
2022-11-03T00:17:38.186Z,79.37
2022-11-03T00:20:04.752Z,79.91
2022-11-03T00:22:33.115Z,79.96
2022-11-03T00:24:59.624Z,81.01
2022-11-03T00:27:26.006Z,80.72
2022-11-03T00:29:52.418Z,80.11
2022-11-03T00:32:18.900Z,80.17
2022-11-03T00:34:45.374Z,79.77
2022-11-03T00:37:11.733Z,79.22
2022-11-03T00:39:38.095Z,79.56
2022-11-03T00:42:04.553Z,79.82
2022-11-03T00:44:30.930Z,80.22
2022-11-03T00:46:57.349Z,80.29
2022-11-03T00:49:23.722Z,80.97
2022-11-03T00:51:50.116Z,82.22
2022-11-03T00:54:16.479Z,81.08
2022-11-03T00:56:44.207Z,81.79
2022-11-03T00:59:10.909Z,81.44
2022-11-03T01:01:43.866Z,82.14
2022-11-03T01:04:30.537Z,81.69
2022-11-03T01:06:58.176Z,83.10
2022-11-03T01:09:24.603Z,83.71
2022-11-03T01:12:09.552Z,84.32
2022-11-03T01:14:37.710Z,84.45
2022-11-03T01:17:13.842Z,85.63
2022-11-03T01:19:40.469Z,84.61
2022-11-03T01:22:10.620Z,84.66
2022-11-03T01:24:38.327Z,84.64
2022-11-03T01:27:04.750Z,84.50
2022-11-03T01:29:31.159Z,84.96
2022-11-03T01:31:57.964Z,84.88
2022-11-03T01:34:24.381Z,85.11
2022-11-03T01:36:50.891Z,84.93
2022-11-03T01:39:18.146Z,85.21
2022-11-03T01:41:45.531Z,84.70
2022-11-03T01:44:11.863Z,85.75
2022-11-03T01:46:44.186Z,85.91
2022-11-03T01:49:25.506Z,85.81
2022-11-03T01:51:54.910Z,85.44
2022-11-03T01:54:23.003Z,85.99
2022-11-03T01:56:51.400Z,86.23
2022-11-03T01:59:18.741Z,85.97
2022-11-03T02:01:45.559Z,85.62
2022-11-03T02:04:25.389Z,85.99
2022-11-03T02:06:57.245Z,86.34
2022-11-03T02:09:24.488Z,86.56
2022-11-03T02:12:09.130Z,86.77
2022-11-03T02:14:37.242Z,87.62
2022-11-03T02:17:06.465Z,88.03
2022-11-03T02:19:44.468Z,87.07
2022-11-03T02:22:35.342Z,86.65
2022-11-03T02:25:20.794Z,86.29
2022-11-03T02:27:47.262Z,85.88
2022-11-03T02:30:13.723Z,86.79
2022-11-03T02:32:50.513Z,88.27
2022-11-03T02:35:28.492Z,88.11
2022-11-03T02:37:57.663Z,89.02
2022-11-03T02:40:27.731Z,88.87
2022-11-03T02:42:54.862Z,89.66
2022-11-03T02:45:22.547Z,90.67
2022-11-03T02:47:49.699Z,91.03
2022-11-03T02:50:16.940Z,90.87
2022-11-03T02:52:44.820Z,90.06
2022-11-03T02:55:29.970Z,89.16
2022-11-03T02:58:15.132Z,89.71
2022-11-03T03:00:44.748Z,89.68
2022-11-03T03:03:31.415Z,90.47
2022-11-03T03:06:02.168Z,89.73
2022-11-03T03:08:29.805Z,91.58
2022-11-03T03:10:57.388Z,90.93
2022-11-03T03:13:24.409Z,91.24
2022-11-03T03:15:56.786Z,91.73
2022-11-03T03:18:26.534Z,92.48
2022-11-03T03:21:00.118Z,92.76
2022-11-03T03:23:28.633Z,94.29
2022-11-03T03:25:59.257Z,94.20
2022-11-03T03:28:29.446Z,94.89
2022-11-03T03:30:57.597Z,94.32
2022-11-03T03:33:25.019Z,93.93
2022-11-03T03:35:52.740Z,94.01
2022-11-03T03:38:21.615Z,93.85
2022-11-03T03:40:50.467Z,93.73
2022-11-03T03:43:17.279Z,93.88
2022-11-03T03:45:45.052Z,93.63
2022-11-03T03:48:12.029Z,93.01
2022-11-03T03:50:39.760Z,92.33
2022-11-03T03:53:07.133Z,92.32
2022-11-03T03:55:37.774Z,92.51
2022-11-03T03:58:05.686Z,92.38
2022-11-03T04:00:32.518Z,92.92
2022-11-03T04:02:59.567Z,92.53
2022-11-03T04:05:26.627Z,91.95
2022-11-03T04:07:53.073Z,91.76
2022-11-03T04:10:20.543Z,91.87
2022-11-03T04:13:05.854Z,92.86
2022-11-03T04:16:01.766Z,93.09
2022-11-03T04:19:06.388Z,93.38
2022-11-03T04:21:51.428Z,93.05
2022-11-03T04:24:17.769Z,92.75
2022-11-03T04:26:44.124Z,93.40
2022-11-03T04:29:10.975Z,92.82
2022-11-03T04:31:37.442Z,90.91
2022-11-03T04:34:04.692Z,92.30
2022-11-03T04:36:31.153Z,92.43
2022-11-03T04:38:57.617Z,91.62
2022-11-03T04:41:25.215Z,92.22
2022-11-03T04:43:52.640Z,91.90
2022-11-03T04:46:26.950Z,91.07
2022-11-03T04:48:54.200Z,91.98
2022-11-03T04:51:25.526Z,92.19
2022-11-03T04:54:15.242Z,92.42
2022-11-03T04:56:41.807Z,92.77
2022-11-03T04:59:12.615Z,92.13
2022-11-03T05:01:39.640Z,92.57
2022-11-03T05:04:13.162Z,92.67
2022-11-03T05:06:40.075Z,92.76
2022-11-03T05:09:14.657Z,91.81
2022-11-03T05:11:45.374Z,91.64
2022-11-03T05:14:17.495Z,92.65
2022-11-03T05:16:44.449Z,93.02
2022-11-03T05:19:22.625Z,92.07
2022-11-03T05:21:50.094Z,93.99
2022-11-03T05:24:18.652Z,92.22
2022-11-03T05:26:45.437Z,92.99
2022-11-03T05:29:19.596Z,93.56
2022-11-03T05:31:50.784Z,93.88
2022-11-03T05:34:26.561Z,94.21
2022-11-03T05:36:53.036Z,92.84
2022-11-03T05:39:28.722Z,92.84
2022-11-03T05:41:55.427Z,94.18
2022-11-03T05:44:21.786Z,94.61
2022-11-03T05:46:48.163Z,94.56
2022-11-03T05:49:15.001Z,94.16
2022-11-03T05:51:42.623Z,94.27
2022-11-03T05:54:19.844Z,93.52
2022-11-03T05:56:46.948Z,94.53
2022-11-03T05:59:14.034Z,93.64
2022-11-03T06:01:40.791Z,94.67
2022-11-03T06:04:13.082Z,94.71
2022-11-03T06:06:39.581Z,94.35
2022-11-03T06:09:15.959Z,94.52
2022-11-03T06:11:42.624Z,95.07
2022-11-03T06:14:24.064Z,94.44
2022-11-03T06:16:54.034Z,94.95
2022-11-03T06:19:28.825Z,94.39
2022-11-03T06:21:57.084Z,94.59
2022-11-03T06:24:25.510Z,94.07
2022-11-03T06:26:52.744Z,94.32
2022-11-03T06:29:20.284Z,94.74
2022-11-03T06:31:48.065Z,94.88
2022-11-03T06:34:34.788Z,94.95
2022-11-03T06:37:10.830Z,95.76
2022-11-03T06:39:39.090Z,95.33
2022-11-03T06:42:13.053Z,95.41
2022-11-03T06:44:49.928Z,94.61
2022-11-03T06:47:26.642Z,94.73
2022-11-03T06:49:54.911Z,94.31
2022-11-03T06:52:27.487Z,94.83
2022-11-03T06:54:55.272Z,94.24
2022-11-03T06:57:21.810Z,93.48
2022-11-03T06:59:56.992Z,93.24
2022-11-03T07:02:47.969Z,93.72
2022-11-03T07:05:20.096Z,93.03
2022-11-03T07:07:46.886Z,93.10
2022-11-03T07:10:13.287Z,94.47
2022-11-03T07:12:40.416Z,94.22
2022-11-03T07:15:16.758Z,93.90
2022-11-03T07:17:43.122Z,92.79
2022-11-03T07:20:13.441Z,92.62
2022-11-03T07:22:39.843Z,92.41
2022-11-03T07:25:06.860Z,92.32
2022-11-03T07:27:36.059Z,92.71
2022-11-03T07:30:08.422Z,92.59
2022-11-03T07:32:35.099Z,92.45
2022-11-03T07:35:04.839Z,92.37
2022-11-03T07:37:31.263Z,92.53
2022-11-03T07:39:58.455Z,91.38
2022-11-03T07:42:26.045Z,91.40
2022-11-03T07:44:55.675Z,89.67
2022-11-03T07:47:23.410Z,90.28
2022-11-03T07:49:49.809Z,90.44
2022-11-03T07:52:18.988Z,90.81
2022-11-03T07:54:45.453Z,90.35
2022-11-03T07:57:14.945Z,89.43
2022-11-03T07:59:43.749Z,89.66
2022-11-03T08:02:29.443Z,89.77
2022-11-03T08:04:56.079Z,90.06
2022-11-03T08:07:22.523Z,90.09
2022-11-03T08:09:48.907Z,89.91
2022-11-03T08:12:15.284Z,90.01
2022-11-03T08:14:41.745Z,89.42
2022-11-03T08:17:08.159Z,89.13
2022-11-03T08:19:34.704Z,88.19
2022-11-03T08:22:01.079Z,88.86
2022-11-03T08:24:27.468Z,88.34
2022-11-03T08:26:53.865Z,89.14
2022-11-03T08:29:21.288Z,88.84
2022-11-03T08:31:47.778Z,88.34
2022-11-03T08:34:14.169Z,88.80
2022-11-03T08:36:40.570Z,88.86
2022-11-03T08:39:06.964Z,89.03
2022-11-03T08:41:33.424Z,87.76
2022-11-03T08:44:00.142Z,87.93
2022-11-03T08:46:26.562Z,88.22
2022-11-03T08:48:53.164Z,88.42
2022-11-03T08:51:19.610Z,87.63
2022-11-03T08:53:50.376Z,88.40
2022-11-03T08:56:20.469Z,88.03
2022-11-03T08:58:48.814Z,87.55
2022-11-03T09:01:15.254Z,87.76
2022-11-03T09:03:41.751Z,88.16
2022-11-03T09:06:08.720Z,87.64
2022-11-03T09:11:21.456Z,86.95
2022-11-03T09:13:47.836Z,87.14
2022-11-03T09:16:14.270Z,87.05
2022-11-03T09:18:40.681Z,87.26
2022-11-03T09:21:07.297Z,86.54
2022-11-03T09:23:33.693Z,86.87
2022-11-03T09:26:00.125Z,86.18
2022-11-03T09:28:26.499Z,85.60
2022-11-03T09:30:52.945Z,85.36
2022-11-03T09:33:19.443Z,84.08
2022-11-03T09:35:45.976Z,85.00
2022-11-03T09:38:12.459Z,84.51
2022-11-03T09:40:38.981Z,84.01
2022-11-03T09:43:05.794Z,83.77
2022-11-03T09:45:32.586Z,83.30
2022-11-03T09:47:59.113Z,82.59
2022-11-03T09:50:25.725Z,82.34
2022-11-03T09:52:54.292Z,82.37
2022-11-03T09:55:25.027Z,80.74
2022-11-03T09:57:55.358Z,80.94
2022-11-03T10:00:22.694Z,80.07
2022-11-03T10:02:49.680Z,78.45
2022-11-03T10:05:19.290Z,79.07
2022-11-03T10:07:45.844Z,78.10
2022-11-03T10:10:17.003Z,77.97
2022-11-03T10:12:43.627Z,79.33
2022-11-03T10:15:14.361Z,78.52
2022-11-03T10:17:40.819Z,78.75
2022-11-03T10:20:11.337Z,78.56
2022-11-03T10:22:40.977Z,78.51
2022-11-03T10:25:25.940Z,78.31
2022-11-03T10:27:52.354Z,77.78
2022-11-03T10:30:18.822Z,76.68
2022-11-03T10:32:45.232Z,77.80
2022-11-03T10:35:30.310Z,76.34
2022-11-03T10:37:57.130Z,77.38
2022-11-03T10:40:52.236Z,76.78
2022-11-03T10:43:18.849Z,75.57
2022-11-03T10:45:45.293Z,76.33
2022-11-03T10:48:11.786Z,76.02
2022-11-03T10:50:42.037Z,75.87
2022-11-03T10:53:19.928Z,75.75
2022-11-03T10:55:46.781Z,75.51
2022-11-03T10:58:13.274Z,75.32
2022-11-03T11:00:42.939Z,75.62
2022-11-03T11:03:15.105Z,75.70
2022-11-03T11:05:45.236Z,75.58
2022-11-03T11:08:13.605Z,76.04
2022-11-03T11:10:43.351Z,75.90
2022-11-03T11:13:18.969Z,75.53
2022-11-03T11:15:46.642Z,75.47
2022-11-03T11:18:31.215Z,75.74
2022-11-03T11:21:01.656Z,75.32
2022-11-03T11:23:28.038Z,74.21
2022-11-03T11:26:09.794Z,75.28
2022-11-03T11:28:54.966Z,75.02
2022-11-03T11:31:27.532Z,74.57
2022-11-03T11:34:09.327Z,74.15
2022-11-03T11:36:36.691Z,74.41
2022-11-03T11:39:13.069Z,74.54
2022-11-03T11:41:58.159Z,74.40
2022-11-03T11:44:40.079Z,74.49
2022-11-03T11:47:18.702Z,73.23
2022-11-03T11:49:45.149Z,73.98
2022-11-03T11:52:15.463Z,73.24
2022-11-03T11:54:45.516Z,73.80
2022-11-03T11:57:18.523Z,74.14
2022-11-03T11:59:46.422Z,74.02
2022-11-03T12:02:18.614Z,74.26
2022-11-03T12:04:47.980Z,73.60
2022-11-03T12:07:14.556Z,74.47
2022-11-03T12:09:41.746Z,74.52
2022-11-03T12:12:08.945Z,74.98
2022-11-03T12:14:37.165Z,75.34
2022-11-03T12:17:18.784Z,75.10
2022-11-03T12:19:49.610Z,74.81
2022-11-03T12:22:26.080Z,75.00
2022-11-03T12:24:56.637Z,75.14
2022-11-03T12:27:25.854Z,75.21
2022-11-03T12:29:53.196Z,75.07
2022-11-03T12:32:32.891Z,74.60
2022-11-03T12:35:01.788Z,75.37
2022-11-03T12:37:48.956Z,74.78
2022-11-03T12:40:15.496Z,74.73
2022-11-03T12:42:41.959Z,75.41
2022-11-03T12:45:08.812Z,75.47
2022-11-03T12:47:35.334Z,74.93
2022-11-03T12:50:01.845Z,75.60
2022-11-03T12:52:28.219Z,75.68
2022-11-03T12:54:54.685Z,76.02
2022-11-03T12:57:21.038Z,76.05
2022-11-03T12:59:47.557Z,75.89
2022-11-03T13:02:14.141Z,75.91
2022-11-03T13:04:40.688Z,76.20
2022-11-03T13:07:07.119Z,76.20
2022-11-03T13:09:35.710Z,77.27
2022-11-03T13:12:21.176Z,76.55
2022-11-03T13:14:48.735Z,76.58
2022-11-03T13:17:15.334Z,76.31
2022-11-03T13:19:41.788Z,75.74
2022-11-03T13:22:08.255Z,76.41
2022-11-03T13:24:34.664Z,76.20
2022-11-03T13:27:01.107Z,75.80
2022-11-03T13:29:31.156Z,76.37
2022-11-03T13:32:01.864Z,75.57
2022-11-03T13:34:28.586Z,75.92
2022-11-03T13:36:55.188Z,75.43
2022-11-03T13:39:21.639Z,75.70
2022-11-03T13:41:48.076Z,75.65
2022-11-03T13:44:14.468Z,75.55
2022-11-03T13:46:40.875Z,74.95
2022-11-03T13:51:53.835Z,76.52
2022-11-03T13:59:53.038Z,77.03
2022-11-03T14:05:07.293Z,77.35
2022-11-03T14:07:35.376Z,77.27
2022-11-03T14:10:03.934Z,77.22
2022-11-03T14:12:30.920Z,77.96
2022-11-03T14:14:57.807Z,77.96
2022-11-03T14:17:24.603Z,77.51
2022-11-03T14:19:53.059Z,77.89
2022-11-03T14:22:23.880Z,77.74
2022-11-03T14:24:51.059Z,79.38
2022-11-03T14:27:18.306Z,81.37
2022-11-03T14:29:45.041Z,83.02
2022-11-03T14:32:12.180Z,84.24
2022-11-03T14:34:38.792Z,86.10
2022-11-03T14:37:05.766Z,87.17
2022-11-03T14:39:32.234Z,89.68
2022-11-03T14:42:04.482Z,94.11
2022-11-03T14:44:34.816Z,96.50
2022-11-03T14:47:01.982Z,99.56
2022-11-03T14:49:29.093Z,100.00
2022-11-03T14:51:56.928Z,99.31
2022-11-03T14:54:26.467Z,100.00
2022-11-03T14:56:53.780Z,100.00
2022-11-03T14:59:20.627Z,100.00
2022-11-03T15:01:47.670Z,100.00
2022-11-03T15:04:14.307Z,100.00
2022-11-03T15:06:41.416Z,100.00
2022-11-03T15:11:39.825Z,100.00
2022-11-03T15:14:06.251Z,100.00
2022-11-03T15:16:34.411Z,100.00
2022-11-03T15:19:00.773Z,100.00
2022-11-03T15:21:28.065Z,100.00
2022-11-03T15:26:40.764Z,100.00
2022-11-03T15:29:07.148Z,100.00
2022-11-03T15:31:33.530Z,100.00
2022-11-03T15:34:01.852Z,100.00
2022-11-03T15:36:31.701Z,100.00
2022-11-03T15:38:58.163Z,100.00
2022-11-03T15:41:24.623Z,100.00
2022-11-03T15:43:51.027Z,100.00
2022-11-03T15:46:18.167Z,100.00
2022-11-03T15:48:45.132Z,100.00
2022-11-03T15:51:12.125Z,100.00
2022-11-03T15:53:38.702Z,100.00
2022-11-03T15:56:05.333Z,100.00
2022-11-03T15:58:34.131Z,100.00
2022-11-03T16:01:03.813Z,100.00
2022-11-03T16:03:31.784Z,100.00
2022-11-03T16:05:58.403Z,100.00
2022-11-03T16:08:24.861Z,100.00
2022-11-03T16:10:57.255Z,100.00
2022-11-03T16:13:24.977Z,100.00
2022-11-03T16:15:51.701Z,100.00
2022-11-03T16:18:18.191Z,100.00
2022-11-03T16:20:44.733Z,100.00
2022-11-03T16:23:11.115Z,100.00
2022-11-03T16:25:37.474Z,100.00
2022-11-03T16:28:04.083Z,100.00
2022-11-03T16:30:30.724Z,100.00
2022-11-03T16:32:57.188Z,100.00
2022-11-03T16:35:23.607Z,100.00
2022-11-03T16:37:50.020Z,100.00
2022-11-03T16:40:19.657Z,100.00
2022-11-03T16:42:46.852Z,100.00
2022-11-03T16:45:20.808Z,100.00
2022-11-03T16:47:47.785Z,100.00
2022-11-03T16:50:14.367Z,100.00
2022-11-03T16:52:40.775Z,100.00
2022-11-03T16:55:07.653Z,100.00
2022-11-03T16:57:34.150Z,100.00
2022-11-03T17:00:00.534Z,100.00
2022-11-03T17:02:27.941Z,100.00
2022-11-03T17:04:54.747Z,100.00
2022-11-03T17:07:21.158Z,100.00
2022-11-03T17:09:47.545Z,100.00
2022-11-03T17:12:14.158Z,100.00
2022-11-03T17:14:40.623Z,100.00
2022-11-03T17:17:06.992Z,100.00
2022-11-03T17:19:33.358Z,100.00
2022-11-03T17:21:59.833Z,100.00
2022-11-03T17:24:26.550Z,100.00
2022-11-03T17:26:52.927Z,100.00
2022-11-03T17:29:21.622Z,100.00
2022-11-03T17:31:49.191Z,100.00
2022-11-03T17:34:16.751Z,100.00
2022-11-03T17:36:43.218Z,100.00
2022-11-03T17:39:14.166Z,100.00
2022-11-03T17:41:40.605Z,100.00
2022-11-03T17:44:13.206Z,100.00
2022-11-03T17:46:39.971Z,100.00
2022-11-03T17:49:06.378Z,100.00
2022-11-03T17:51:33.484Z,100.00
2022-11-03T17:54:01.092Z,100.00
2022-11-03T17:56:30.447Z,100.00
2022-11-03T17:58:57.274Z,100.00
2022-11-03T18:01:25.047Z,100.00
2022-11-03T18:03:52.202Z,100.00
2022-11-03T18:06:19.747Z,100.00
2022-11-03T18:08:49.596Z,100.00
2022-11-03T18:11:39.385Z,100.00
2022-11-03T18:14:05.842Z,100.00
2022-11-03T18:16:32.251Z,100.00
2022-11-03T18:18:58.694Z,100.00
2022-11-03T18:21:25.164Z,100.00
2022-11-03T18:23:51.603Z,100.00
2022-11-03T18:26:19.645Z,100.00
2022-11-03T18:28:46.630Z,100.00
2022-11-03T18:31:18.589Z,100.00
2022-11-03T18:33:45.128Z,100.00
2022-11-03T18:36:14.546Z,100.00
2022-11-03T18:38:42.311Z,100.00
2022-11-03T18:41:33.676Z,100.00
2022-11-03T18:44:00.200Z,100.00
2022-11-03T18:46:26.658Z,100.00
2022-11-03T18:48:53.071Z,100.00
2022-11-03T18:51:19.515Z,100.00
2022-11-03T18:53:46.292Z,100.00
2022-11-03T18:56:13.433Z,100.00
2022-11-03T18:58:40.046Z,100.00
2022-11-03T19:01:07.149Z,100.00
2022-11-03T19:03:33.617Z,100.00
2022-11-03T19:06:00.115Z,100.00
2022-11-03T19:08:31.425Z,100.00
2022-11-03T19:11:03.493Z,100.00
2022-11-03T19:13:50.196Z,100.00
2022-11-03T19:16:18.544Z,100.00
2022-11-03T19:18:45.078Z,100.00
2022-11-03T19:21:15.955Z,100.00
2022-11-03T19:23:47.608Z,100.00
2022-11-03T19:26:14.740Z,100.00
2022-11-03T19:28:41.364Z,100.00
2022-11-03T19:31:11.399Z,100.00
2022-11-03T19:33:38.213Z,100.00
2022-11-03T19:36:04.869Z,100.00
2022-11-03T19:38:31.856Z,100.00
2022-11-03T19:41:27.606Z,100.00
2022-11-03T19:43:54.456Z,100.00
2022-11-03T19:46:21.579Z,100.00
2022-11-03T19:48:48.261Z,100.00
2022-11-03T19:51:15.254Z,100.00
2022-11-03T19:53:47.030Z,100.00
2022-11-03T19:56:15.235Z,100.00
2022-11-03T19:58:42.388Z,100.00
2022-11-03T20:01:09.092Z,100.00
2022-11-03T20:03:36.514Z,100.00
2022-11-03T20:06:03.421Z,100.00
2022-11-03T20:08:32.160Z,100.00
2022-11-03T20:10:58.570Z,100.00
2022-11-03T20:13:26.404Z,100.00
2022-11-03T20:15:59.070Z,100.00
2022-11-03T20:18:26.871Z,100.00
2022-11-03T20:20:53.608Z,100.00
2022-11-03T20:23:22.449Z,100.00
2022-11-03T20:25:49.508Z,100.00
2022-11-03T20:28:20.843Z,100.00
2022-11-03T20:30:47.996Z,100.00
2022-11-03T20:33:15.776Z,100.00
2022-11-03T20:35:43.015Z,100.00
2022-11-03T20:38:11.919Z,100.00
2022-11-03T20:40:38.912Z,100.00
2022-11-03T20:43:05.679Z,100.00
2022-11-03T20:45:32.062Z,100.00
2022-11-03T20:47:58.446Z,100.00
2022-11-03T20:50:25.295Z,100.00
2022-11-03T20:52:52.600Z,100.00
2022-11-03T20:55:20.691Z,100.00
2022-11-03T20:57:47.888Z,100.00
2022-11-03T21:00:21.426Z,100.00
2022-11-03T21:02:48.886Z,100.00
2022-11-03T21:05:16.763Z,100.00
2022-11-03T21:07:43.533Z,100.00
2022-11-03T21:10:10.643Z,100.00
2022-11-03T21:12:37.507Z,100.00
2022-11-03T21:15:31.633Z,100.00
2022-11-03T21:18:16.790Z,100.00
2022-11-03T21:20:44.958Z,100.00
2022-11-03T21:23:16.487Z,100.00
2022-11-03T21:25:42.904Z,100.00
2022-11-03T21:28:09.739Z,100.00
2022-11-03T21:30:37.230Z,100.00
2022-11-03T21:33:04.005Z,100.00
2022-11-03T21:35:30.547Z,100.00
2022-11-03T21:37:56.976Z,100.00
2022-11-03T21:40:23.358Z,100.00
2022-11-03T21:43:08.465Z,100.00
2022-11-03T21:45:35.207Z,100.00
2022-11-03T21:48:21.032Z,100.00
2022-11-03T21:50:47.754Z,100.00
2022-11-03T21:53:14.543Z,100.00
2022-11-03T21:55:41.369Z,100.00
2022-11-03T21:58:07.958Z,100.00
2022-11-03T22:00:34.750Z,100.00
2022-11-03T22:03:01.170Z,100.00
2022-11-03T22:05:27.771Z,100.00
2022-11-03T22:07:54.200Z,100.00
2022-11-03T22:10:20.715Z,100.00
2022-11-03T22:12:47.120Z,100.00
2022-11-03T22:15:32.244Z,100.00
2022-11-03T22:18:02.132Z,100.00
2022-11-03T22:20:47.375Z,100.00
2022-11-03T22:23:34.151Z,100.00
2022-11-03T22:26:20.109Z,100.00
2022-11-03T22:29:06.450Z,100.00
2022-11-03T22:31:41.908Z,100.00
2022-11-03T22:34:27.107Z,100.00
2022-11-03T22:36:53.475Z,100.00
2022-11-03T22:39:38.645Z,100.00
2022-11-03T22:42:23.632Z,100.00
2022-11-03T22:45:08.768Z,100.00
2022-11-03T22:47:35.379Z,100.00
2022-11-03T22:50:01.796Z,100.00
2022-11-03T22:52:28.195Z,100.00
2022-11-03T22:54:54.557Z,100.00
2022-11-03T22:57:20.898Z,100.00
2022-11-03T22:59:47.415Z,100.00
2022-11-03T23:02:14.051Z,100.00
2022-11-03T23:04:40.563Z,100.00
2022-11-03T23:07:06.946Z,100.00
2022-11-03T23:09:33.291Z,100.00
2022-11-03T23:11:59.644Z,100.00
2022-11-03T23:14:45.958Z,100.00
2022-11-03T23:17:12.439Z,100.00
2022-11-03T23:19:57.756Z,100.00
2022-11-03T23:22:24.113Z,100.00
2022-11-03T23:24:59.904Z,100.00
2022-11-03T23:27:26.326Z,100.00
2022-11-03T23:29:52.705Z,100.00
2022-11-03T23:32:19.199Z,100.00
2022-11-03T23:34:45.574Z,100.00
2022-11-03T23:37:11.955Z,100.00
2022-11-03T23:39:38.302Z,100.00
2022-11-03T23:42:06.509Z,100.00
2022-11-03T23:44:52.891Z,100.00
2022-11-03T23:47:37.844Z,100.00
2022-11-03T23:50:05.175Z,100.00
2022-11-03T23:52:31.543Z,100.00
2022-11-03T23:54:57.899Z,100.00
2022-11-03T23:57:43.106Z,100.00
